createdAt,value
2022-10-26T00:00:52.916Z,8.00
2022-10-26T00:03:19.980Z,8.00
2022-10-26T00:05:46.756Z,8.00
2022-10-26T00:08:13.644Z,8.10
2022-10-26T00:10:40.526Z,8.10
2022-10-26T00:13:12.224Z,8.10
2022-10-26T00:15:42.825Z,8.00
2022-10-26T00:18:10.172Z,8.10
2022-10-26T00:20:37.140Z,8.00
2022-10-26T00:23:03.918Z,8.00
2022-10-26T00:25:30.726Z,8.00
2022-10-26T00:27:57.553Z,7.90
2022-10-26T00:30:24.403Z,8.00
2022-10-26T00:32:51.169Z,7.90
2022-10-26T00:35:24.403Z,7.90
2022-10-26T00:38:01.542Z,7.90
2022-10-26T00:40:29.603Z,7.90
2022-10-26T00:42:56.996Z,7.90
2022-10-26T00:45:29.440Z,7.90
2022-10-26T00:48:07.297Z,7.90
2022-10-26T00:50:39.574Z,7.90
2022-10-26T00:53:07.395Z,7.80
2022-10-26T00:55:38.428Z,7.80
2022-10-26T00:58:08.479Z,7.80
2022-10-26T01:00:35.453Z,7.70
2022-10-26T01:03:06.294Z,7.70
2022-10-26T01:05:35.918Z,7.60
2022-10-26T01:08:03.119Z,7.60
2022-10-26T01:10:30.512Z,7.60
2022-10-26T01:12:58.864Z,7.60
2022-10-26T01:15:34.444Z,7.60
2022-10-26T01:18:15.520Z,7.60
2022-10-26T01:21:32.545Z,7.60
2022-10-26T01:24:36.756Z,7.50
2022-10-26T01:27:21.894Z,7.50
2022-10-26T01:29:55.601Z,7.40
2022-10-26T01:33:00.198Z,7.40
2022-10-26T01:35:41.071Z,7.30
2022-10-26T01:38:32.970Z,7.30
2022-10-26T01:41:12.609Z,7.30
2022-10-26T01:43:44.097Z,7.40
2022-10-26T01:46:12.629Z,7.40
2022-10-26T01:48:41.179Z,7.40
2022-10-26T01:51:11.260Z,7.40
2022-10-26T01:53:44.818Z,7.30
2022-10-26T01:56:19.580Z,7.20
2022-10-26T01:59:23.973Z,7.20
2022-10-26T02:02:09.447Z,7.20
2022-10-26T02:05:13.893Z,7.10
2022-10-26T02:07:57.835Z,7.10
2022-10-26T02:10:24.578Z,7.00
2022-10-26T02:13:07.647Z,7.00
2022-10-26T02:15:38.980Z,7.10
2022-10-26T02:18:15.042Z,7.10
2022-10-26T02:20:47.500Z,7.00
2022-10-26T02:23:16.377Z,7.00
2022-10-26T02:26:00.055Z,7.00
2022-10-26T02:28:33.025Z,7.00
2022-10-26T02:31:02.794Z,6.90
2022-10-26T02:33:32.008Z,6.90
2022-10-26T02:36:02.932Z,6.90
2022-10-26T02:38:33.026Z,6.90
2022-10-26T02:41:02.759Z,7.00
2022-10-26T02:43:33.325Z,6.90
2022-10-26T02:46:06.724Z,7.00
2022-10-26T02:48:34.750Z,7.00
2022-10-26T02:51:30.212Z,7.10
2022-10-26T02:54:33.171Z,7.20
2022-10-26T02:57:15.113Z,7.20
2022-10-26T02:59:47.573Z,7.20
2022-10-26T03:02:17.633Z,7.20
2022-10-26T03:04:44.707Z,7.20
2022-10-26T03:07:11.525Z,7.20
2022-10-26T03:09:38.376Z,7.20
2022-10-26T03:12:05.523Z,7.10
2022-10-26T03:14:32.296Z,7.10
2022-10-26T03:16:59.149Z,7.00
2022-10-26T03:19:26.159Z,7.10
2022-10-26T03:21:52.931Z,7.10
2022-10-26T03:24:19.703Z,7.00
2022-10-26T03:26:46.477Z,7.00
2022-10-26T03:29:13.297Z,7.00
2022-10-26T03:31:40.091Z,6.90
2022-10-26T03:34:06.895Z,6.90
2022-10-26T03:36:34.060Z,6.90
2022-10-26T03:39:00.949Z,7.00
2022-10-26T03:41:27.827Z,7.10
2022-10-26T03:43:54.760Z,7.00
2022-10-26T03:46:21.556Z,6.90
2022-10-26T03:48:48.320Z,6.90
2022-10-26T03:51:15.074Z,6.80
2022-10-26T03:53:41.841Z,6.80
2022-10-26T03:56:08.718Z,6.80
2022-10-26T03:58:35.486Z,6.70
2022-10-26T04:01:02.274Z,6.70
2022-10-26T04:03:29.050Z,6.60
2022-10-26T04:05:55.905Z,6.60
2022-10-26T04:08:22.711Z,6.70
2022-10-26T04:10:49.485Z,6.70
2022-10-26T04:13:16.347Z,6.60
2022-10-26T04:15:43.419Z,6.70
2022-10-26T04:18:13.003Z,6.70
2022-10-26T04:20:42.165Z,6.70
2022-10-26T04:23:14.742Z,6.80
2022-10-26T04:25:42.796Z,6.90
2022-10-26T04:28:10.980Z,6.90
2022-10-26T04:30:38.595Z,6.90
2022-10-26T04:33:06.871Z,6.90
2022-10-26T04:35:35.121Z,6.90
2022-10-26T04:38:05.053Z,6.90
2022-10-26T04:40:33.220Z,6.80
2022-10-26T04:43:00.128Z,6.80
2022-10-26T04:45:28.643Z,6.70
2022-10-26T04:48:04.992Z,6.70
2022-10-26T04:50:32.357Z,6.60
2022-10-26T04:53:02.660Z,6.60
2022-10-26T04:55:29.530Z,6.60
2022-10-26T04:57:58.628Z,6.60
2022-10-26T05:00:28.335Z,6.60
2022-10-26T05:03:06.454Z,6.60
2022-10-26T05:05:35.231Z,6.60
2022-10-26T05:08:02.154Z,6.50
2022-10-26T05:10:29.003Z,6.50
2022-10-26T05:12:57.280Z,6.50
2022-10-26T05:15:24.160Z,6.50
2022-10-26T05:17:59.130Z,6.40
2022-10-26T05:20:31.216Z,6.30
2022-10-26T05:22:59.399Z,6.30
2022-10-26T05:25:26.778Z,6.20
2022-10-26T05:28:01.066Z,6.20
2022-10-26T05:30:28.947Z,6.20
2022-10-26T05:33:00.170Z,6.10
2022-10-26T05:35:27.530Z,6.10
2022-10-26T05:37:54.595Z,6.10
2022-10-26T05:40:21.861Z,6.20
2022-10-26T05:42:48.951Z,6.30
2022-10-26T05:45:18.075Z,6.20
2022-10-26T05:47:45.745Z,6.20
2022-10-26T05:50:13.555Z,6.10
2022-10-26T05:52:42.212Z,6.00
2022-10-26T05:55:13.583Z,6.00
2022-10-26T05:57:41.310Z,6.00
2022-10-26T06:00:11.126Z,6.00
2022-10-26T06:03:16.925Z,6.00
2022-10-26T06:05:54.439Z,6.00
2022-10-26T06:08:23.614Z,6.00
2022-10-26T06:10:51.889Z,5.90
2022-10-26T06:13:18.980Z,6.00
2022-10-26T06:15:59.821Z,5.90
2022-10-26T06:18:51.317Z,5.90
2022-10-26T06:21:33.276Z,5.90
2022-10-26T06:24:33.184Z,5.90
2022-10-26T06:27:32.255Z,5.90
2022-10-26T06:30:03.266Z,6.00
2022-10-26T06:32:30.708Z,6.20
2022-10-26T06:35:29.000Z,6.30
2022-10-26T06:37:59.653Z,6.40
2022-10-26T06:40:27.289Z,6.40
2022-10-26T06:42:54.864Z,6.40
2022-10-26T06:45:22.103Z,6.50
2022-10-26T06:48:04.964Z,6.50
2022-10-26T06:50:45.104Z,6.50
2022-10-26T06:53:31.066Z,6.60
2022-10-26T06:55:59.447Z,6.80
2022-10-26T06:58:31.065Z,6.80
2022-10-26T07:00:58.390Z,6.90
2022-10-26T07:03:25.332Z,6.90
2022-10-26T07:05:52.441Z,7.00
2022-10-26T07:08:19.503Z,7.10
2022-10-26T07:10:49.699Z,7.30
2022-10-26T07:13:16.478Z,7.40
2022-10-26T07:15:43.617Z,7.60
2022-10-26T07:18:10.735Z,7.60
2022-10-26T07:20:39.465Z,7.80
2022-10-26T07:23:07.546Z,7.90
2022-10-26T07:25:35.521Z,8.00
2022-10-26T07:28:02.803Z,8.10
2022-10-26T07:30:31.023Z,8.20
2022-10-26T07:33:07.772Z,8.30
2022-10-26T07:35:34.841Z,8.40
2022-10-26T07:38:02.326Z,8.50
2022-10-26T07:40:29.126Z,8.60
2022-10-26T07:43:00.737Z,8.70
2022-10-26T07:45:29.364Z,8.80
2022-10-26T07:47:56.944Z,9.00
2022-10-26T07:50:24.256Z,9.10
2022-10-26T07:52:51.610Z,9.20
2022-10-26T07:55:19.220Z,9.50
2022-10-26T07:57:47.574Z,9.60
2022-10-26T08:00:17.972Z,9.80
2022-10-26T08:02:45.145Z,9.90
2022-10-26T08:05:11.988Z,10.00
2022-10-26T08:07:42.978Z,10.20
2022-10-26T08:10:11.004Z,10.30
2022-10-26T08:12:38.315Z,10.40
2022-10-26T08:15:05.758Z,10.50
2022-10-26T08:17:32.995Z,10.50
2022-10-26T08:19:59.829Z,10.60
2022-10-26T08:22:28.645Z,10.70
2022-10-26T08:24:55.410Z,10.80
2022-10-26T08:27:22.527Z,11.00
2022-10-26T08:29:49.318Z,11.10
2022-10-26T08:32:16.202Z,11.20
2022-10-26T08:34:42.997Z,11.30
2022-10-26T08:37:09.790Z,11.40
2022-10-26T08:39:36.652Z,11.50
2022-10-26T08:42:14.822Z,11.70
2022-10-26T08:44:48.369Z,11.90
2022-10-26T08:47:23.716Z,12.10
2022-10-26T08:50:26.463Z,12.20
2022-10-26T08:53:12.733Z,12.30
2022-10-26T08:55:48.875Z,12.40
2022-10-26T08:58:18.710Z,12.70
2022-10-26T09:00:48.677Z,12.80
2022-10-26T09:03:17.063Z,13.00
2022-10-26T09:05:53.113Z,13.00
2022-10-26T09:08:38.965Z,13.20
2022-10-26T09:11:31.897Z,13.20
2022-10-26T09:14:12.676Z,13.30
2022-10-26T09:17:06.111Z,13.30
2022-10-26T09:20:13.578Z,13.60
2022-10-26T09:23:06.824Z,13.80
2022-10-26T09:25:40.161Z,13.90
2022-10-26T09:28:16.207Z,14.20
2022-10-26T09:30:45.369Z,14.40
2022-10-26T09:33:24.201Z,14.60
2022-10-26T09:35:57.837Z,14.50
2022-10-26T09:38:40.055Z,14.60
2022-10-26T09:41:36.996Z,14.80
2022-10-26T09:44:27.115Z,15.00
2022-10-26T09:46:56.995Z,15.10
2022-10-26T09:49:31.431Z,15.00
2022-10-26T09:51:59.253Z,15.10
2022-10-26T09:54:26.038Z,15.20
2022-10-26T09:56:57.300Z,15.40
2022-10-26T09:59:26.130Z,15.50
2022-10-26T10:01:53.099Z,15.60
2022-10-26T10:04:22.757Z,15.70
2022-10-26T10:06:52.224Z,15.70
2022-10-26T10:09:21.533Z,15.70
2022-10-26T10:11:56.617Z,15.80
2022-10-26T10:14:34.799Z,15.90
2022-10-26T10:17:18.158Z,16.00
2022-10-26T10:19:45.017Z,16.10
2022-10-26T10:22:14.838Z,16.30
2022-10-26T10:24:52.617Z,16.20
2022-10-26T10:27:19.566Z,16.20
2022-10-26T10:29:49.833Z,16.50
2022-10-26T10:32:30.361Z,16.50
2022-10-26T10:34:58.972Z,16.50
2022-10-26T10:37:27.546Z,16.50
2022-10-26T10:39:59.503Z,16.50
2022-10-26T10:42:31.035Z,16.50
2022-10-26T10:44:58.268Z,16.50
2022-10-26T10:47:36.804Z,16.70
2022-10-26T10:50:20.464Z,16.80
2022-10-26T10:52:47.704Z,16.80
2022-10-26T10:55:14.686Z,16.90
2022-10-26T10:57:51.962Z,16.90
2022-10-26T11:00:20.690Z,17.00
2022-10-26T11:03:31.583Z,16.90
2022-10-26T11:06:20.144Z,17.00
2022-10-26T11:09:00.247Z,17.10
2022-10-26T11:11:27.110Z,17.00
2022-10-26T11:14:11.259Z,17.00
2022-10-26T11:16:40.842Z,16.90
2022-10-26T11:19:35.009Z,17.00
2022-10-26T11:22:05.389Z,17.10
2022-10-26T11:24:41.121Z,17.20
2022-10-26T11:27:34.087Z,17.20
2022-10-26T11:30:13.659Z,17.30
2022-10-26T11:32:46.526Z,17.40
2022-10-26T11:35:27.824Z,17.30
2022-10-26T11:38:12.315Z,17.30
2022-10-26T11:40:45.357Z,17.40
2022-10-26T11:43:26.728Z,17.40
2022-10-26T11:46:13.875Z,17.40
2022-10-26T11:49:06.941Z,17.30
2022-10-26T11:51:40.242Z,17.20
2022-10-26T11:54:48.880Z,17.10
2022-10-26T11:57:16.921Z,17.10
2022-10-26T11:59:52.489Z,17.10
2022-10-26T12:02:24.443Z,17.10
2022-10-26T12:05:08.025Z,17.10
2022-10-26T12:07:38.650Z,17.20
2022-10-26T12:10:11.707Z,17.30
2022-10-26T12:12:48.545Z,17.30
2022-10-26T12:15:22.814Z,17.50
2022-10-26T12:17:55.378Z,17.50
2022-10-26T12:20:40.747Z,17.50
2022-10-26T12:23:12.175Z,17.50
2022-10-26T12:25:40.685Z,17.50
2022-10-26T12:28:33.313Z,17.60
2022-10-26T12:31:32.040Z,17.50
2022-10-26T12:33:59.925Z,17.50
2022-10-26T12:36:54.691Z,17.60
2022-10-26T12:39:30.737Z,17.50
2022-10-26T12:42:10.589Z,17.50
2022-10-26T12:44:47.337Z,17.50
2022-10-26T12:47:29.654Z,17.50
2022-10-26T12:50:02.604Z,17.50
2022-10-26T12:52:53.597Z,17.60
2022-10-26T12:55:46.573Z,17.60
2022-10-26T12:58:25.886Z,17.70
2022-10-26T13:00:58.647Z,17.70
2022-10-26T13:03:36.151Z,17.70
2022-10-26T13:06:35.876Z,17.80
2022-10-26T13:09:09.989Z,17.80
2022-10-26T13:11:38.400Z,17.80
2022-10-26T13:14:09.009Z,17.90
2022-10-26T13:16:35.941Z,17.90
2022-10-26T13:19:02.766Z,17.90
2022-10-26T13:21:29.641Z,17.80
2022-10-26T13:24:06.129Z,17.90
2022-10-26T13:26:53.207Z,17.90
2022-10-26T13:29:29.054Z,17.90
2022-10-26T13:31:56.552Z,17.80
2022-10-26T13:34:26.158Z,17.80
2022-10-26T13:37:11.416Z,17.80
2022-10-26T13:39:47.742Z,17.80
2022-10-26T13:42:21.730Z,17.80
2022-10-26T13:44:58.901Z,17.70
2022-10-26T13:47:45.912Z,17.80
2022-10-26T13:50:24.745Z,17.80
2022-10-26T13:53:08.283Z,17.80
2022-10-26T13:56:07.536Z,17.70
2022-10-26T13:58:43.231Z,17.70
2022-10-26T14:01:10.333Z,17.60
2022-10-26T14:03:37.789Z,17.60
2022-10-26T14:06:15.006Z,17.50
2022-10-26T14:08:43.415Z,17.50
2022-10-26T14:11:17.005Z,17.50
2022-10-26T14:13:43.969Z,17.40
2022-10-26T14:16:13.111Z,17.30
2022-10-26T14:18:42.922Z,17.30
2022-10-26T14:21:20.096Z,17.30
2022-10-26T14:23:56.004Z,17.30
2022-10-26T14:26:29.234Z,17.20
2022-10-26T14:28:59.179Z,17.20
2022-10-26T14:31:27.746Z,17.30
2022-10-26T14:33:56.028Z,17.20
2022-10-26T14:36:45.146Z,17.10
2022-10-26T14:39:22.108Z,17.00
2022-10-26T14:41:51.613Z,16.90
2022-10-26T14:44:21.114Z,16.70
2022-10-26T14:46:48.214Z,16.60
2022-10-26T14:49:24.877Z,16.50
2022-10-26T14:52:06.390Z,16.40
2022-10-26T14:54:33.993Z,16.40
2022-10-26T14:57:08.544Z,16.20
2022-10-26T14:59:35.404Z,16.10
2022-10-26T15:02:21.188Z,16.00
2022-10-26T15:05:17.579Z,15.80
2022-10-26T15:07:45.574Z,15.60
2022-10-26T15:10:36.955Z,15.50
2022-10-26T15:13:11.115Z,15.40
2022-10-26T15:15:39.742Z,15.30
2022-10-26T15:18:35.834Z,15.20
2022-10-26T15:21:02.748Z,15.10
2022-10-26T15:23:31.080Z,15.00
2022-10-26T15:26:00.955Z,14.90
2022-10-26T15:28:39.944Z,14.80
2022-10-26T15:31:27.555Z,14.70
2022-10-26T15:33:54.283Z,14.70
2022-10-26T15:36:35.592Z,14.60
2022-10-26T15:39:02.425Z,14.60
2022-10-26T15:41:31.551Z,14.60
2022-10-26T15:44:02.719Z,14.50
2022-10-26T15:46:31.443Z,14.40
2022-10-26T15:49:01.581Z,14.30
2022-10-26T15:51:30.021Z,14.20
2022-10-26T15:54:02.489Z,14.20
2022-10-26T15:56:30.775Z,14.20
2022-10-26T15:58:58.275Z,14.10
2022-10-26T16:01:27.414Z,14.10
2022-10-26T16:03:54.444Z,14.00
2022-10-26T16:06:31.787Z,13.90
2022-10-26T16:09:01.636Z,13.90
2022-10-26T16:11:29.416Z,13.80
2022-10-26T16:13:58.330Z,13.80
2022-10-26T16:16:28.086Z,13.70
2022-10-26T16:19:11.829Z,13.60
2022-10-26T16:21:42.888Z,13.50
2022-10-26T16:24:09.962Z,13.40
2022-10-26T16:26:36.927Z,13.40
2022-10-26T16:29:03.743Z,13.40
2022-10-26T16:31:30.553Z,13.50
2022-10-26T16:34:00.352Z,13.40
2022-10-26T16:36:32.861Z,13.30
2022-10-26T16:38:59.917Z,13.30
2022-10-26T16:41:26.787Z,13.20
2022-10-26T16:43:55.767Z,13.20
2022-10-26T16:46:22.566Z,13.20
2022-10-26T16:48:50.445Z,13.30
2022-10-26T16:51:18.634Z,13.30
2022-10-26T16:53:47.979Z,13.20
2022-10-26T16:56:27.043Z,13.20
2022-10-26T16:58:54.391Z,13.10
2022-10-26T17:01:21.794Z,13.10
2022-10-26T17:03:50.633Z,13.10
2022-10-26T17:06:18.571Z,13.00
2022-10-26T17:08:46.046Z,12.90
2022-10-26T17:11:18.210Z,12.90
2022-10-26T17:13:45.105Z,12.90
2022-10-26T17:16:14.789Z,12.90
2022-10-26T17:18:42.858Z,12.90
2022-10-26T17:21:11.393Z,12.90
2022-10-26T17:23:38.373Z,12.90
2022-10-26T17:26:08.005Z,12.90
2022-10-26T17:28:34.921Z,12.90
2022-10-26T17:31:22.503Z,12.90
2022-10-26T17:33:50.841Z,12.90
2022-10-26T17:36:23.192Z,12.90
2022-10-26T17:38:51.532Z,12.90
2022-10-26T17:41:20.127Z,12.90
2022-10-26T17:43:48.612Z,12.90
2022-10-26T17:46:21.073Z,12.90
2022-10-26T17:48:47.884Z,12.90
2022-10-26T17:51:17.599Z,12.80
2022-10-26T17:53:47.582Z,12.90
2022-10-26T17:56:19.978Z,12.90
2022-10-26T17:58:54.962Z,13.10
2022-10-26T18:01:22.239Z,13.10
2022-10-26T18:03:49.127Z,13.20
2022-10-26T18:06:17.241Z,13.20
2022-10-26T18:08:45.166Z,13.10
2022-10-26T18:11:15.004Z,13.10
2022-10-26T18:13:41.847Z,13.20
2022-10-26T18:16:15.783Z,13.30
2022-10-26T18:18:49.997Z,13.30
2022-10-26T18:21:18.944Z,13.40
2022-10-26T18:23:46.622Z,13.40
2022-10-26T18:26:22.101Z,13.40
2022-10-26T18:28:49.367Z,13.40
2022-10-26T18:31:22.276Z,13.30
2022-10-26T18:33:49.317Z,13.40
2022-10-26T18:36:18.135Z,13.30
2022-10-26T18:38:47.035Z,13.30
2022-10-26T18:41:15.773Z,13.30
2022-10-26T18:43:44.668Z,13.30
2022-10-26T18:46:19.007Z,13.30
2022-10-26T18:48:48.585Z,13.20
2022-10-26T18:51:17.872Z,13.20
2022-10-26T18:53:46.264Z,13.20
2022-10-26T18:56:18.882Z,13.20
2022-10-26T18:58:49.071Z,13.10
2022-10-26T19:01:18.732Z,13.10
2022-10-26T19:03:46.164Z,13.10
2022-10-26T19:06:27.755Z,13.00
2022-10-26T19:08:55.436Z,13.00
2022-10-26T19:11:24.596Z,13.00
2022-10-26T19:13:53.907Z,13.00
2022-10-26T19:16:40.758Z,12.90
2022-10-26T19:19:10.617Z,13.00
2022-10-26T19:21:37.494Z,12.90
2022-10-26T19:24:04.778Z,12.90
2022-10-26T19:26:36.016Z,13.10
2022-10-26T19:29:07.014Z,13.10
2022-10-26T19:31:35.785Z,13.10
2022-10-26T19:34:03.455Z,13.10
2022-10-26T19:36:30.338Z,13.00
2022-10-26T19:38:57.183Z,13.00
2022-10-26T19:41:26.833Z,13.00
2022-10-26T19:43:54.737Z,13.00
2022-10-26T19:46:27.176Z,13.00
2022-10-26T19:48:56.981Z,13.00
2022-10-26T19:51:25.157Z,13.00
2022-10-26T19:53:52.467Z,13.00
2022-10-26T19:56:20.517Z,12.90
2022-10-26T19:58:48.018Z,12.90
2022-10-26T20:01:15.706Z,12.80
2022-10-26T20:03:42.889Z,12.80
2022-10-26T20:06:12.970Z,12.80
2022-10-26T20:08:41.694Z,12.70
2022-10-26T20:11:13.105Z,12.70
2022-10-26T20:13:43.797Z,12.60
2022-10-26T20:16:12.155Z,12.40
2022-10-26T20:18:42.690Z,12.30
2022-10-26T20:21:15.961Z,12.30
2022-10-26T20:23:43.271Z,12.20
2022-10-26T20:26:16.431Z,12.20
2022-10-26T20:28:52.599Z,12.20
2022-10-26T20:31:19.770Z,12.20
2022-10-26T20:33:50.813Z,12.20
2022-10-26T20:36:17.612Z,12.10
2022-10-26T20:38:44.661Z,12.00
2022-10-26T20:41:12.817Z,11.90
2022-10-26T20:43:40.988Z,11.80
2022-10-26T20:46:31.721Z,11.80
2022-10-26T20:48:58.830Z,11.80
2022-10-26T20:51:44.418Z,11.70
2022-10-26T20:54:30.136Z,11.60
2022-10-26T20:57:00.583Z,11.60
2022-10-26T20:59:40.813Z,11.50
2022-10-26T21:02:10.605Z,11.50
2022-10-26T21:04:37.398Z,11.60
2022-10-26T21:07:04.200Z,11.60
2022-10-26T21:09:34.199Z,11.70
2022-10-26T21:12:03.913Z,11.60
2022-10-26T21:14:30.782Z,11.60
2022-10-26T21:16:57.631Z,11.60
2022-10-26T21:19:24.427Z,11.60
2022-10-26T21:21:51.155Z,11.50
2022-10-26T21:24:17.915Z,11.60
2022-10-26T21:26:44.713Z,11.50
2022-10-26T21:29:11.586Z,11.40
2022-10-26T21:31:39.062Z,11.30
2022-10-26T21:34:06.366Z,11.30
2022-10-26T21:36:33.135Z,11.20
2022-10-26T21:38:59.990Z,11.10
2022-10-26T21:41:26.905Z,11.00
2022-10-26T21:44:03.424Z,11.00
2022-10-26T21:46:36.110Z,11.00
2022-10-26T21:49:03.017Z,10.90
2022-10-26T21:51:29.780Z,10.80
2022-10-26T21:53:57.927Z,10.90
2022-10-26T21:56:24.727Z,10.80
2022-10-26T21:58:51.628Z,10.80
2022-10-26T22:01:20.793Z,10.80
2022-10-26T22:03:48.962Z,10.80
2022-10-26T22:08:51.911Z,10.70
2022-10-26T22:11:21.155Z,10.60
2022-10-26T22:13:49.257Z,10.60
2022-10-26T22:16:24.679Z,10.50
2022-10-26T22:18:53.869Z,10.50
2022-10-26T22:21:23.442Z,10.40
2022-10-26T22:23:50.357Z,10.50
2022-10-26T22:26:19.622Z,10.40
2022-10-26T22:28:47.846Z,10.30
2022-10-26T22:31:17.522Z,10.30
2022-10-26T22:33:44.922Z,10.30
2022-10-26T22:36:14.797Z,10.40
2022-10-26T22:38:42.274Z,10.30
2022-10-26T22:41:10.122Z,10.30
2022-10-26T22:43:37.018Z,10.40
2022-10-26T22:46:16.234Z,10.40
2022-10-26T22:48:46.358Z,10.30
2022-10-26T22:51:16.413Z,10.30
2022-10-26T22:53:43.670Z,10.30
2022-10-26T22:56:12.080Z,10.30
2022-10-26T22:58:39.628Z,10.30
2022-10-26T23:01:12.600Z,10.30
2022-10-26T23:03:39.568Z,10.30
2022-10-26T23:06:08.134Z,10.30
2022-10-26T23:08:35.102Z,10.20
2022-10-26T23:11:04.323Z,10.40
2022-10-26T23:13:31.330Z,10.70
2022-10-26T23:16:08.586Z,10.60
2022-10-26T23:18:35.756Z,10.70
2022-10-26T23:21:03.570Z,10.70
2022-10-26T23:23:30.440Z,10.90
2022-10-26T23:26:01.814Z,10.90
2022-10-26T23:28:28.618Z,10.80
2022-10-26T23:30:55.388Z,10.80
2022-10-26T23:33:22.225Z,10.80
2022-10-26T23:35:53.487Z,10.80
2022-10-26T23:38:20.484Z,10.80
2022-10-26T23:40:50.845Z,10.80
2022-10-26T23:43:17.657Z,10.70
2022-10-26T23:45:44.463Z,10.80
2022-10-26T23:48:11.445Z,10.80
2022-10-26T23:50:38.360Z,10.80
2022-10-26T23:53:05.175Z,10.80
2022-10-26T23:55:31.927Z,10.80
2022-10-26T23:57:58.975Z,10.80
